createdAt,value
2022-09-22T00:04:14.863Z,100581.38
2022-09-22T00:09:21.049Z,100576.38
2022-09-22T00:14:26.870Z,100574.46
2022-09-22T00:19:36.778Z,100575.71
2022-09-22T00:24:40.193Z,100571.80
2022-09-22T00:29:44.116Z,100568.80
2022-09-22T00:34:47.328Z,100568.23
2022-09-22T00:39:52.682Z,100571.73
2022-09-22T00:44:56.097Z,100569.55
2022-09-22T00:50:24.798Z,100570.73
2022-09-22T00:55:47.365Z,100572.01
2022-09-22T01:00:50.928Z,100569.45
2022-09-22T01:05:58.081Z,100573.61
2022-09-22T01:11:02.314Z,100569.84
2022-09-22T01:16:08.306Z,100571.90
2022-09-22T01:21:33.923Z,100569.78
2022-09-22T01:26:58.120Z,100571.41
2022-09-22T01:32:20.069Z,100569.88
2022-09-22T01:37:39.559Z,100572.48
2022-09-22T01:42:53.622Z,100577.30
2022-09-22T01:48:02.667Z,100577.54
2022-09-22T01:53:10.587Z,100579.44
2022-09-22T01:58:22.294Z,100578.43
2022-09-22T02:03:41.168Z,100577.21
2022-09-22T02:09:07.651Z,100576.38
2022-09-22T02:14:12.369Z,100576.80
2022-09-22T02:19:28.477Z,100576.86
2022-09-22T02:24:44.691Z,100575.55
2022-09-22T02:29:52.574Z,100570.70
2022-09-22T02:34:56.603Z,100571.44
2022-09-22T02:40:07.484Z,100570.78
2022-09-22T02:45:17.799Z,100568.85
2022-09-22T02:50:24.573Z,100578.30
2022-09-22T02:55:28.315Z,100577.52
2022-09-22T03:00:32.748Z,100574.45
2022-09-22T03:05:36.059Z,100577.20
2022-09-22T03:10:39.169Z,100577.79
2022-09-22T03:15:42.855Z,100575.63
2022-09-22T03:20:46.302Z,100578.11
2022-09-22T03:25:49.618Z,100569.12
2022-09-22T03:30:52.998Z,100568.16
2022-09-22T03:35:56.333Z,100566.66
2022-09-22T03:41:01.692Z,100569.75
2022-09-22T03:46:05.134Z,100573.01
2022-09-22T03:51:08.519Z,100575.70
2022-09-22T03:56:14.391Z,100572.88
2022-09-22T04:01:17.742Z,100575.53
2022-09-22T04:06:21.626Z,100573.73
2022-09-22T04:11:25.144Z,100575.67
2022-09-22T04:16:30.153Z,100575.34
2022-09-22T04:21:33.507Z,100576.29
2022-09-22T04:26:36.712Z,100580.84
2022-09-22T04:31:40.636Z,100584.48
2022-09-22T04:36:44.051Z,100583.46
2022-09-22T04:41:47.470Z,100579.79
2022-09-22T04:46:50.776Z,100579.37
2022-09-22T04:51:54.187Z,100580.58
2022-09-22T04:56:57.497Z,100586.60
2022-09-22T05:02:00.809Z,100590.88
2022-09-22T05:07:05.045Z,100587.59
2022-09-22T05:12:08.455Z,100596.52
2022-09-22T05:17:11.868Z,100593.30
2022-09-22T05:22:15.177Z,100593.31
2022-09-22T05:27:19.002Z,100601.27
2022-09-22T05:32:22.312Z,100602.73
2022-09-22T05:37:25.620Z,100599.91
2022-09-22T05:42:29.035Z,100603.14
2022-09-22T05:47:34.806Z,100608.73
2022-09-22T05:52:38.422Z,100606.75
2022-09-22T05:57:41.937Z,100605.45
2022-09-22T06:02:45.417Z,100604.66
2022-09-22T06:07:58.584Z,100610.99
2022-09-22T06:13:04.164Z,100617.41
2022-09-22T06:18:14.590Z,100616.75
2022-09-22T06:23:18.562Z,100620.73
2022-09-22T06:28:22.282Z,100622.16
2022-09-22T06:33:25.596Z,100624.90
2022-09-22T06:38:32.180Z,100625.63
2022-09-22T06:43:38.075Z,100630.92
2022-09-22T06:48:41.463Z,100633.48
2022-09-22T06:53:47.552Z,100631.61
2022-09-22T06:59:09.963Z,100635.48
2022-09-22T07:04:15.158Z,100640.23
2022-09-22T07:09:18.464Z,100647.77
2022-09-22T07:14:22.698Z,100649.02
2022-09-22T07:19:26.006Z,100655.09
2022-09-22T07:24:29.216Z,100659.14
2022-09-22T07:29:33.593Z,100658.09
2022-09-22T07:34:36.758Z,100658.86
2022-09-22T07:39:39.970Z,100656.84
2022-09-22T07:45:01.914Z,100656.85
2022-09-22T07:50:05.862Z,100657.73
2022-09-22T07:55:09.764Z,100661.02
2022-09-22T08:00:13.792Z,100655.60
2022-09-22T08:05:17.308Z,100649.52
2022-09-22T08:10:20.741Z,100654.15
2022-09-22T08:15:27.142Z,100653.68
2022-09-22T08:20:31.233Z,100651.11
2022-09-22T08:25:35.055Z,100649.45
2022-09-22T08:30:39.594Z,100655.92
2022-09-22T08:35:53.660Z,100655.93
2022-09-22T08:41:13.455Z,100660.64
2022-09-22T08:46:16.798Z,100658.39
2022-09-22T08:51:52.435Z,100659.48
2022-09-22T08:57:06.396Z,100647.95
2022-09-22T09:02:32.899Z,100652.91
2022-09-22T09:08:02.682Z,100650.64
2022-09-22T09:13:14.493Z,100649.13
2022-09-22T09:18:27.741Z,100647.83
2022-09-22T09:29:22.691Z,100649.78
2022-09-22T09:34:29.281Z,100645.52
2022-09-22T09:39:39.040Z,100643.58
2022-09-22T09:44:43.814Z,100643.55
2022-09-22T09:49:52.678Z,100642.10
2022-09-22T09:54:56.447Z,100639.73
2022-09-22T10:00:34.983Z,100644.10
2022-09-22T10:05:38.396Z,100641.70
2022-09-22T10:10:42.220Z,100642.78
2022-09-22T10:16:00.025Z,100638.16
2022-09-22T10:21:07.478Z,100636.77
2022-09-22T10:26:18.467Z,100637.61
2022-09-22T10:31:27.754Z,100638.16
2022-09-22T10:36:33.527Z,100641.50
2022-09-22T10:41:38.640Z,100634.14
2022-09-22T10:46:58.131Z,100638.19
2022-09-22T10:52:09.452Z,100643.19
2022-09-22T10:57:44.688Z,100637.33
2022-09-22T11:03:05.919Z,100629.55
2022-09-22T11:08:41.077Z,100617.09
2022-09-22T11:13:55.241Z,100618.13
2022-09-22T11:19:14.424Z,100628.31
2022-09-22T11:24:44.771Z,100622.54
2022-09-22T11:30:11.049Z,100626.00
2022-09-22T11:35:36.556Z,100621.01
2022-09-22T11:41:18.260Z,100616.83
2022-09-22T11:46:23.302Z,100620.31
2022-09-22T11:51:46.488Z,100613.34
2022-09-22T11:56:53.462Z,100589.73
2022-09-22T12:02:00.438Z,100590.23
2022-09-22T12:07:10.577Z,100590.30
2022-09-22T12:12:19.718Z,100603.77
2022-09-22T12:17:35.709Z,100600.50
2022-09-22T12:22:57.961Z,100598.87
2022-09-22T12:28:01.686Z,100598.77
2022-09-22T12:33:05.509Z,100599.20
2022-09-22T12:38:13.321Z,100590.69
2022-09-22T12:43:20.713Z,100592.67
2022-09-22T12:48:32.538Z,100585.29
2022-09-22T12:53:38.055Z,100588.63
2022-09-22T12:58:44.791Z,100593.96
2022-09-22T13:03:53.023Z,100601.04
2022-09-22T13:08:56.123Z,100605.34
2022-09-22T13:13:59.643Z,100596.33
2022-09-22T13:19:04.396Z,100604.17
2022-09-22T13:24:24.895Z,100596.19
2022-09-22T13:29:31.382Z,100596.98
2022-09-22T13:34:36.842Z,100598.89
2022-09-22T13:39:47.201Z,100592.20
2022-09-22T13:45:04.356Z,100586.11
2022-09-22T13:50:14.015Z,100575.52
2022-09-22T13:55:46.817Z,100570.05
2022-09-22T14:01:14.145Z,100566.57
2022-09-22T14:06:22.220Z,100571.61
2022-09-22T14:11:30.463Z,100573.08
2022-09-22T14:16:33.717Z,100571.75
2022-09-22T14:22:03.276Z,100568.80
2022-09-22T14:27:08.735Z,100566.11
2022-09-22T14:32:19.424Z,100565.05
2022-09-22T14:37:28.057Z,100575.66
2022-09-22T14:42:34.052Z,100577.73
2022-09-22T14:47:41.747Z,100578.41
2022-09-22T14:52:56.216Z,100578.43
2022-09-22T14:58:04.099Z,100574.77
2022-09-22T15:03:18.912Z,100567.39
2022-09-22T15:08:28.475Z,100569.55
2022-09-22T15:13:53.088Z,100564.70
2022-09-22T15:18:56.606Z,100559.42
2022-09-22T15:24:00.735Z,100559.08
2022-09-22T15:29:04.050Z,100561.13
2022-09-22T15:34:07.768Z,100553.77
2022-09-22T15:39:22.961Z,100558.42
2022-09-22T15:44:26.468Z,100563.70
2022-09-22T15:49:33.466Z,100560.45
2022-09-22T15:54:37.499Z,100557.09
2022-09-22T15:59:42.346Z,100555.70
2022-09-22T16:04:46.068Z,100555.79
2022-09-22T16:09:49.275Z,100565.77
2022-09-22T16:14:55.256Z,100574.86
2022-09-22T16:19:58.869Z,100588.00
2022-09-22T16:25:04.421Z,100588.73
2022-09-22T16:30:08.343Z,100594.22
2022-09-22T16:35:12.079Z,100595.44
2022-09-22T16:40:15.451Z,100597.85
2022-09-22T16:45:39.081Z,100591.25
2022-09-22T16:50:43.419Z,100589.96
2022-09-22T16:55:49.694Z,100582.15
2022-09-22T17:00:52.854Z,100585.13
2022-09-22T17:06:08.432Z,100582.41
2022-09-22T17:11:14.985Z,100581.14
2022-09-22T17:16:30.469Z,100580.25
2022-09-22T17:21:36.648Z,100580.52
2022-09-22T17:26:48.062Z,100580.55
2022-09-22T17:32:00.288Z,100580.02
2022-09-22T17:37:04.920Z,100581.44
2022-09-22T17:42:08.127Z,100580.91
2022-09-22T17:47:30.073Z,100578.57
2022-09-22T17:52:33.297Z,100585.63
2022-09-22T17:57:41.301Z,100588.59
2022-09-22T18:02:45.389Z,100590.48
2022-09-22T18:07:53.007Z,100589.95
2022-09-22T18:12:57.063Z,100589.20
2022-09-22T18:18:03.340Z,100591.81
2022-09-22T18:23:07.880Z,100594.84
2022-09-22T18:28:11.292Z,100597.04
2022-09-22T18:33:14.499Z,100598.03
2022-09-22T18:38:20.167Z,100600.14
2022-09-22T18:43:23.373Z,100597.55
2022-09-22T18:48:27.504Z,100600.13
2022-09-22T18:53:30.813Z,100603.08
2022-09-22T18:58:34.228Z,100603.91
2022-09-22T19:03:37.433Z,100604.00
2022-09-22T19:08:41.051Z,100603.81
2022-09-22T19:13:44.978Z,100600.74
2022-09-22T19:18:48.435Z,100601.92
2022-09-22T19:23:51.601Z,100599.45
2022-09-22T19:28:54.808Z,100597.96
2022-09-22T19:33:58.118Z,100594.42
2022-09-22T19:39:01.326Z,100595.96
2022-09-22T19:44:05.764Z,100601.99
2022-09-22T19:49:09.180Z,100598.30
2022-09-22T19:54:12.488Z,100596.63
2022-09-22T19:59:19.893Z,100596.59
2022-09-22T20:04:23.819Z,100593.63
2022-09-22T20:09:27.232Z,100592.31
2022-09-22T20:14:32.078Z,100593.62
2022-09-22T20:19:40.050Z,100589.17
2022-09-22T20:24:43.322Z,100590.73
2022-09-22T20:29:46.619Z,100590.73
2022-09-22T20:34:51.160Z,100585.17
2022-09-22T20:39:54.467Z,100582.59
2022-09-22T20:44:58.599Z,100581.77
2022-09-22T20:50:03.144Z,100580.83
2022-09-22T20:55:07.046Z,100580.18
2022-09-22T21:00:10.888Z,100576.66
2022-09-22T21:05:14.406Z,100570.21
2022-09-22T21:10:46.802Z,100571.57
2022-09-22T21:15:58.557Z,100565.46
2022-09-22T21:21:04.234Z,100560.70
2022-09-22T21:26:08.504Z,100560.15
2022-09-22T21:31:15.009Z,100555.98
2022-09-22T21:36:20.577Z,100554.60
2022-09-22T21:41:27.350Z,100551.89
2022-09-22T21:46:32.048Z,100553.48
2022-09-22T21:51:41.502Z,100556.35
2022-09-22T21:56:45.754Z,100551.05
2022-09-22T22:01:49.150Z,100554.94
2022-09-22T22:06:52.501Z,100551.44
2022-09-22T22:11:59.121Z,100545.05
2022-09-22T22:17:02.604Z,100545.81
2022-09-22T22:22:06.118Z,100546.48
2022-09-22T22:27:10.946Z,100541.36
2022-09-22T22:32:15.300Z,100541.11
2022-09-22T22:37:18.510Z,100541.75
2022-09-22T22:42:21.716Z,100535.87
2022-09-22T22:47:25.949Z,100529.29
2022-09-22T22:52:29.360Z,100524.26
2022-09-22T22:57:32.673Z,100524.97
2022-09-22T23:02:35.881Z,100520.64
2022-09-22T23:07:39.091Z,100514.73
2022-09-22T23:12:42.296Z,100508.23
2022-09-22T23:17:48.641Z,100509.46
2022-09-22T23:22:51.785Z,100502.93
2022-09-22T23:27:54.790Z,100497.06
2022-09-22T23:32:58.390Z,100490.90
2022-09-22T23:38:01.924Z,100486.27
2022-09-22T23:43:04.927Z,100481.25
2022-09-22T23:48:08.032Z,100477.44
2022-09-22T23:53:12.266Z,100475.15
2022-09-22T23:58:15.578Z,100479.73
